Home > Products > Valid Products > TAF

000
FTUS44 KMRX 232322
TAFTYS
TAF
KTYS 232322Z 2400/2424 04004KT P6SM SKC
     FM241800 23009KT P6SM FEW040 SCT250=



000
FTUS44 KMRX 232322
TAFTRI
TAF
KTRI 232322Z 2400/2424 00000KT P6SM FEW150
     FM241800 23005KT P6SM SCT080=



000
FTUS44 KMRX 232322
TAFCHA
TAF
KCHA 232322Z 2400/2424 03004KT P6SM SKC
     FM241800 17008KT P6SM SCT040=



000
FTUS44 KMRX 231720
TAFTYS
TAF
KTYS 231720Z 2318/2418 03008KT P6SM SKC
     FM240100 03003KT P6SM SKC=



000
FTUS44 KMRX 231720
TAFTRI
TAF
KTRI 231720Z 2318/2418 32008KT P6SM FEW150
     FM240100 00000KT P6SM SCT200=



000
FTUS44 KMRX 231720
TAFCHA
TAF
KCHA 231720Z 2318/2418 01010G16KT P6SM SKC
     FM240100 04003KT P6SM SKC=



000
FTUS44 KMRX 231120
TAFCHA
TAF
KCHA 231120Z 2312/2412 34006KT P6SM SKC
     FM231500 01010G16KT P6SM FEW200
     FM240100 00000KT P6SM SKC=



000
FTUS44 KMRX 231120
TAFTRI
TAF
KTRI 231120Z 2312/2412 31005KT P6SM SKC
     FM231600 29010KT P6SM FEW150
     FM240100 00000KT P6SM SCT200=



000
FTUS44 KMRX 231120
TAFTYS
TAF
KTYS 231120Z 2312/2412 36005KT P6SM SKC
     FM231500 03008KT P6SM FEW150
     FM240100 VRB03KT P6SM SKC=



000
FTUS44 KMRX 230932 AAA
TAFTRI
TAF AMD
KTRI 230932Z 2310/2406 29004KT P6SM SKC
     FM231600 29010KT P6SM FEW150
     FM240100 00000KT P6SM FEW200=



000
FTUS44 KMRX 230523
TAFCHA
TAF
KCHA 230523Z 2306/2406 34004KT P6SM SKC
     FM231500 01010G16KT P6SM FEW150
     FM240100 00000KT P6SM SKC=



000
FTUS44 KMRX 230523
TAFTRI
TAF
KTRI 230523Z 2306/2406 29004KT P6SM SCT015
      TEMPO 2308/2312 4SM BR
     FM231300 28007KT P6SM FEW250
     FM231600 29010KT P6SM FEW150
     FM240100 00000KT P6SM FEW200=



000
FTUS44 KMRX 230523
TAFTYS
TAF
KTYS 230523Z 2306/2406 33004KT P6SM SKC
     FM231200 03008KT P6SM FEW150
     FM240100 VRB03KT P6SM SKC=



000
FTUS44 KMRX 222320
TAFTYS
TAF
KTYS 222320Z 2300/2324 25007KT P6SM SCT040 SCT080
     FM230500 33006KT P6SM SKC
     FM231200 03006KT P6SM SCT250=



000
FTUS44 KMRX 222320
TAFTRI
TAF
KTRI 222320Z 2300/2324 25010KT P6SM SCT050 SCT090
     FM230600 28004KT P6SM FEW035
     FM231200 29010KT P6SM SCT250=



000
FTUS44 KMRX 222320
TAFCHA
TAF
KCHA 222320Z 2300/2324 29004KT P6SM SCT050 SCT090
     FM230400 35006KT P6SM SKC
     FM231500 02009KT P6SM SCT250=



000
FTUS44 KMRX 221947 AAA
TAFCHA
TAF AMD
KCHA 221947Z 2220/2318 24006KT P6SM -SHRA VCTS SCT040CB OVC060
      TEMPO 2220/2222 4SM -SHRA BR BKN025 OVC050
     FM222200 32009KT P6SM BKN050 BKN120
     FM230400 35007KT P6SM SKC
     FM231500 02010KT P6SM SKC=



000
FTUS44 KMRX 221810 AAA
TAFTYS
TAF AMD
KTYS 221810Z 2218/2318 23010KT 6SM -SHRA OVC030
      TEMPO 2218/2220 2SM -SHRA BR BKN008 OVC015
     FM222100 25008KT P6SM SCT035 BKN070
     FM230500 33006KT P6SM SKC
     FM231200 02006KT P6SM SKC=



000
FTUS44 KMRX 221723
TAFTYS
TAF
KTYS 221723Z 2218/2318 22010KT 6SM -SHRA OVC035
      TEMPO 2218/2221 4SM -SHRA BR BKN008 OVC025
     FM222100 25008KT P6SM SCT035 BKN070
     FM230500 33006KT P6SM SKC
     FM231200 02006KT P6SM SKC=



000
FTUS44 KMRX 221723
TAFTRI
TAF
KTRI 221723Z 2218/2318 27010KT P6SM BKN035 OVC060
      TEMPO 2218/2221 30010KT 5SM -SHRA BR OVC025
     FM222100 27010KT P6SM BKN035
     FM230600 28007KT P6SM SKC
     FM231200 30007KT P6SM SKC=



000
FTUS44 KMRX 221723
TAFCHA
TAF
KCHA 221723Z 2218/2318 24006KT P6SM -SHRA SCT025 OVC060
      TEMPO 2218/2220 4SM -SHRA BR BKN025 OVC050
     FM222000 32009KT P6SM BKN035
     FM230400 35007KT P6SM SKC
     FM231500 02010KT P6SM SKC=



000
FTUS44 KMRX 221610 AAA
TAFTRI
TAF AMD
KTRI 221610Z 2216/2312 25010KT P6SM -SHRA BKN035 OVC060
      TEMPO 2216/2218 30010KT 5SM -SHRA BR OVC025
     FM222100 27010KT P6SM BKN035
     FM230600 28005KT P6SM SKC=



000
FTUS44 KMRX 221606 AAC
TAFTYS
TAF AMD
KTYS 221606Z 2216/2312 22008KT P6SM SCT035 OVC070
      TEMPO 2216/2218 4SM -SHRA BR BKN030
     FM221800 25008KT P6SM -SHRA BKN035 OVC070
     FM222100 32008KT P6SM BKN035
     FM230500 36006KT P6SM SKC=



000
FTUS44 KMRX 221603 AAB
TAFCHA
TAF AMD
KCHA 221603Z 2216/2312 24006KT P6SM -SHRA SCT025 OVC060
      TEMPO 2217/2220 4SM -SHRA BR BKN025 OVC050
     FM222000 32009KT P6SM BKN035
     FM230400 35007KT P6SM SKC=



000
FTUS44 KMRX 221411 AAB
TAFTYS
TAF AMD
KTYS 221411Z 2214/2312 22006KT P6SM -SHRA SCT035 OVC070
      TEMPO 2214/2216 3SM -RA BR BKN035
     FM221630 24008KT P6SM -SHRA VCTS BKN035CB OVC070
     FM222100 32008KT P6SM BKN035
     FM230500 36006KT P6SM SKC=



000
FTUS44 KMRX 221353 AAA
TAFTYS
TAF AMD
KTYS 221353Z 2214/2312 22006KT P6SM -SHRA BKN035 OVC070
     FM221630 24008KT P6SM -SHRA VCTS BKN035CB OVC070
     FM222100 32008KT P6SM BKN035
     FM230500 36006KT P6SM SKC=



000
FTUS44 KMRX 221215 AAA
TAFCHA
TAF AMD
KCHA 221215Z 2212/2312 24006KT 6SM -SHRA BR SCT030 OVC050
     FM221630 26006KT P6SM -SHRA VCTS BKN035CB OVC060
     FM222000 32009KT P6SM BKN035
     FM230400 35007KT P6SM SKC=



000
FTUS44 KMRX 221126
TAFTRI
TAF
KTRI 221126Z 2212/2312 23005KT P6SM VCSH BKN050 OVC090
     FM221600 24007KT P6SM -SHRA VCTS BKN035CB OVC070
     FM222100 27010KT P6SM BKN035
     FM230600 28005KT P6SM SKC=



000
FTUS44 KMRX 221126
TAFTYS
TAF
KTYS 221126Z 2212/2312 22006KT P6SM -SHRA BKN035 OVC080
     FM221330 23006KT 5SM -SHRA BR BKN035 OVC070
     FM221630 24008KT P6SM -SHRA VCTS BKN035CB OVC070
     FM222100 32008KT P6SM BKN035
     FM230500 36006KT P6SM SKC=



000
FTUS44 KMRX 221126
TAFCHA
TAF
KCHA 221126Z 2212/2312 22005KT 5SM -SHRA BR SCT030 OVC050
     FM221630 24006KT P6SM -SHRA VCTS BKN035CB OVC060
     FM222000 32009KT P6SM BKN035
     FM230400 36006KT P6SM SKC=



000
FTUS44 KMRX 220522
TAFTYS
TAF
KTYS 220522Z 2206/2306 23006KT P6SM VCSH SCT060 OVC100
     FM221200 22003KT P6SM -SHRA BKN035 OVC080
     FM221600 24008KT P6SM -SHRA VCTS BKN035CB OVC070
     FM222100 32008KT P6SM BKN035
     FM230500 36006KT P6SM SKC=



000
FTUS44 KMRX 220522
TAFTRI
TAF
KTRI 220522Z 2206/2306 VRB02KT P6SM SCT060 OVC120
     FM221200 25005KT P6SM VCSH BKN040 OVC070
     FM221600 24007KT P6SM -SHRA VCTS BKN035CB OVC070
     FM222100 27010KT P6SM BKN035=



000
FTUS44 KMRX 220522
TAFCHA
TAF
KCHA 220522Z 2206/2306 VRB03KT P6SM VCSH BKN060 OVC100
     FM221200 22005KT P6SM -SHRA OVC050
     FM221500 24006KT P6SM -SHRA VCTS BKN035CB OVC060
     FM222000 32009KT P6SM BKN035
     FM230400 36007KT P6SM SKC=



000
FTUS44 KMRX 212326
TAFTYS
TAF
KTYS 212326Z 2200/2224 23009KT P6SM SCT100 BKN200
     FM220600 23006KT P6SM VCSH SCT060 OVC100
     FM221200 22003KT P6SM -SHRA BKN035 OVC080
     FM221600 24008KT 4SM -SHRA BR BKN030 OVC080
     FM221900 28008KT P6SM VCSH BKN035
     FM222300 32008KT P6SM BKN040=



000
FTUS44 KMRX 212326
TAFCHA
TAF
KCHA 212326Z 2200/2224 23006KT P6SM BKN050 BKN200
     FM220600 VRB03KT P6SM VCSH BKN040 OVC100
     FM221200 21005KT 6SM -SHRA OVC050
     FM221500 23005KT 4SM -SHRA BR BKN025 OVC050
     FM221900 33007KT P6SM VCSH BKN040 BKN120
     FM222300 34009KT P6SM SCT050 SCT150=



000
FTUS44 KMRX 212326
TAFTRI
TAF
KTRI 212326Z 2200/2224 VRB04KT P6SM BKN120 BKN200
     FM220700 VRB02KT P6SM SCT060 OVC120
     FM221200 25005KT P6SM VCSH OVC040
     FM221600 24004KT 5SM -SHRA BR OVC030
     FM221900 26011KT P6SM VCSH BKN035
     FM222300 29009KT P6SM BKN040=



000
FTUS44 KMRX 211734
TAFTYS
TAF
KTYS 211734Z 2118/2218 23009KT P6SM BKN200
     FM220100 23006KT P6SM SCT060 OVC120
     FM220600 24006KT P6SM VCSH BKN060 OVC100
     FM221200 22003KT P6SM -SHRA OVC050
     FM221400 24008KT 6SM -SHRA OVC025=



000
FTUS44 KMRX 211734
TAFCHA
TAF
KCHA 211734Z 2118/2218 20007KT P6SM BKN200
     FM220100 VRB03KT P6SM SCT060 BKN200
     FM220600 VRB03KT P6SM VCSH BKN060 OVC100
     FM221200 21005KT 6SM -SHRA OVC050
     FM221500 23005KT 4SM -SHRA BR OVC015=



000
FTUS44 KMRX 211734
TAFTRI
TAF
KTRI 211734Z 2118/2218 24007KT P6SM BKN200
     FM220000 25003KT P6SM SCT070 BKN200
     FM220600 25003KT P6SM OVC100
     FM221200 25003KT P6SM OVC050
     FM221500 24004KT P6SM -SHRA OVC050=



000
FTUS44 KMRX 211121
TAFTRI
TAF
KTRI 211121Z 2112/2212 VRB02KT P6SM SCT250
     FM211400 25006KT P6SM BKN200
     FM220000 VRB02KT P6SM SCT070 BKN200
     FM220600 25003KT P6SM VCSH BKN060 OVC100=



000
FTUS44 KMRX 211121
TAFTYS
TAF
KTYS 211121Z 2112/2212 VRB03KT P6SM SCT250
     FM211500 23009KT P6SM BKN200
     FM220100 22006KT P6SM SCT060 BKN200
     FM220600 23006KT P6SM VCSH BKN060 OVC100=



000
FTUS44 KMRX 211121
TAFCHA
TAF
KCHA 211121Z 2112/2212 VRB03KT P6SM SCT250
     FM211500 22007KT P6SM BKN200
     FM220100 VRB03KT P6SM SCT060 BKN200
     FM220600 VRB03KT P6SM VCSH BKN060 OVC100=



000
FTUS44 KMRX 210521
TAFTYS
TAF
KTYS 210521Z 2106/2206 00000KT P6SM BKN250
     FM211500 24009KT P6SM BKN200
     FM220100 22006KT P6SM SCT060 BKN200=



000
FTUS44 KMRX 210521
TAFCHA
TAF
KCHA 210521Z 2106/2206 VRB03KT P6SM BKN250
     FM211500 22006KT P6SM BKN200
     FM220100 VRB03KT P6SM SCT060 BKN200=



000
FTUS44 KMRX 210521
TAFTRI
TAF
KTRI 210521Z 2106/2206 VRB02KT P6SM BKN250
     FM211400 25006KT P6SM BKN200
     FM220000 VRB02KT P6SM SCT070 BKN200=



    US Dept of Commerce
    National Oceanic and Atmospheric Administration
    National Weather Service
    1325 East West Highway
    Silver Spring, MD 20910
    Page Author: NWS Internet Services Team
Disclaimer
Information Quality
Credits
Glossary
Privacy Policy
Freedom of Information Act (FOIA)
About Us
Career Opportunities